Time;durP1;ratioP1;P1;durP2;ratioP2;P2;SDS_P1;SDS_P2;PMS_P1;PMS_P2;Temp;Humidity;BMP_temperature;BMP_pressure;BME280_temperature;BME280_humidity;BME280_pressure;Samples;Min_cycle;Max_cycle;Signal;HPM_P1;HPM_P2
2023/12/05 00:01:10;;;;;;;;;;;19.20;50.50;;;;;;5058689;28;19924;-62
2023/12/05 00:03:35;;;;;;;;;;;19.20;50.40;;;;;;5058535;28;19985;-62
2023/12/05 00:06:01;;;;;;;;;;;19.20;50.60;;;;;;5075355;28;20261;-62
2023/12/05 00:08:26;;;;;;;;;;;19.20;50.40;;;;;;5064372;28;19979;-61
2023/12/05 00:10:52;;;;;;;;;;;19.10;50.40;;;;;;5055951;28;20288;-62
2023/12/05 00:13:17;;;;;;;;;;;19.10;50.40;;;;;;5055338;28;20019;-62
2023/12/05 00:15:43;;;;;;;;;;;19.10;50.40;;;;;;5056146;28;19951;-62
2023/12/05 00:18:09;;;;;;;;;;;19.10;50.40;;;;;;5056237;28;20011;-62
2023/12/05 00:20:34;;;;;;;;;;;19.10;50.40;;;;;;5037666;28;19925;-62
2023/12/05 00:23:00;;;;;;;;;;;19.10;50.40;;;;;;5037670;28;19999;-62
2023/12/05 00:25:25;;;;;;;;;;;19.10;50.40;;;;;;5037669;28;19925;-62
2023/12/05 00:27:51;;;;;;;;;;;19.10;50.40;;;;;;5055376;28;19925;-62
2023/12/05 00:30:16;;;;;;;;;;;19.10;50.30;;;;;;5056318;28;19990;-62
2023/12/05 00:32:42;;;;;;;;;;;19.00;50.30;;;;;;5055352;28;20446;-62
2023/12/05 00:35:08;;;;;;;;;;;19.00;50.30;;;;;;5055851;28;20292;-62
2023/12/05 00:37:33;;;;;;;;;;;19.00;50.30;;;;;;5038298;28;19927;-62
2023/12/05 00:39:58;;;;;;;;;;;19.00;50.30;;;;;;5054257;28;20285;-62
2023/12/05 00:42:24;;;;;;;;;;;19.00;50.80;;;;;;5038103;28;19925;-62
2023/12/05 00:44:49;;;;;;;;;;;19.00;50.20;;;;;;5040761;28;19963;-62
2023/12/05 00:47:15;;;;;;;;;;;19.00;50.30;;;;;;5036832;28;19928;-62
2023/12/05 00:49:40;;;;;;;;;;;19.00;50.20;;;;;;5049210;28;19956;-62
2023/12/05 00:52:06;;;;;;;;;;;18.90;50.20;;;;;;5057695;28;19978;-62
2023/12/05 00:54:31;;;;;;;;;;;18.90;50.20;;;;;;5056200;28;19931;-62
2023/12/05 00:56:57;;;;;;;;;;;18.90;50.20;;;;;;5074783;28;19920;-62
2023/12/05 00:59:23;;;;;;;;;;;18.90;50.10;;;;;;5057871;28;19924;-62
2023/12/05 01:01:48;;;;;;;;;;;18.90;50.20;;;;;;5074450;28;19924;-62
2023/12/05 01:04:14;;;;;;;;;;;18.80;50.00;;;;;;5072201;28;19921;-62
2023/12/05 01:06:39;;;;;;;;;;;18.90;50.20;;;;;;5054694;28;19925;-62
2023/12/05 01:09:10;;;;;;;;;;;18.80;50.00;;;;;;5035894;28;19989;-62
2023/12/05 01:11:36;;;;;;;;;;;18.80;50.10;;;;;;5054454;28;20399;-62
2023/12/05 01:14:01;;;;;;;;;;;18.80;50.10;;;;;;5055181;28;19924;-62
2023/12/05 01:16:26;;;;;;;;;;;18.80;50.00;;;;;;5054399;28;19932;-62
2023/12/05 01:18:52;;;;;;;;;;;18.80;50.00;;;;;;5054981;28;20375;-62
2023/12/05 01:21:17;;;;;;;;;;;18.80;50.00;;;;;;5054605;28;19925;-62
2023/12/05 01:23:43;;;;;;;;;;;18.80;50.00;;;;;;5053922;28;19970;-62
2023/12/05 01:26:08;;;;;;;;;;;18.70;50.00;;;;;;5053901;28;20027;-62
2023/12/05 01:28:34;;;;;;;;;;;18.80;50.00;;;;;;5055229;28;20426;-62
2023/12/05 01:30:59;;;;;;;;;;;18.80;50.00;;;;;;5054044;28;19933;-62
2023/12/05 01:33:25;;;;;;;;;;;18.80;50.00;;;;;;5038817;28;19925;-62
2023/12/05 01:35:50;;;;;;;;;;;18.80;50.10;;;;;;5074952;28;19931;-62
2023/12/05 01:38:18;;;;;;;;;;;18.80;50.10;;;;;;5074012;28;19930;-62
2023/12/05 01:40:44;;;;;;;;;;;18.80;50.10;;;;;;5074384;28;19925;-62
2023/12/05 01:43:09;;;;;;;;;;;18.80;50.10;;;;;;5073891;28;20337;-62
2023/12/05 01:45:35;;;;;;;;;;;18.80;50.00;;;;;;5074827;28;19960;-62
2023/12/05 01:48:00;;;;;;;;;;;18.80;50.00;;;;;;5056230;28;20482;-62
2023/12/05 01:50:27;;;;;;;;;;;18.70;50.00;;;;;;5054971;28;19925;-62
2023/12/05 01:52:53;;;;;;;;;;;18.70;49.90;;;;;;5056476;28;20376;-62
2023/12/05 01:55:19;;;;;;;;;;;18.70;49.90;;;;;;5038316;28;20065;-62
2023/12/05 01:57:47;;;;;;;;;;;18.70;49.90;;;;;;5055056;28;20023;-62
2023/12/05 02:00:13;;;;;;;;;;;18.70;49.90;;;;;;5039404;28;19924;-62
2023/12/05 02:02:39;;;;;;;;;;;18.70;49.90;;;;;;5073993;28;20410;-62
2023/12/05 02:05:05;;;;;;;;;;;18.70;49.90;;;;;;5072998;28;19924;-62
2023/12/05 02:07:31;;;;;;;;;;;18.70;49.90;;;;;;5055127;28;20009;-62
2023/12/05 02:09:56;;;;;;;;;;;18.70;49.90;;;;;;5055486;28;19935;-62
2023/12/05 02:12:22;;;;;;;;;;;18.70;49.90;;;;;;5073386;28;19924;-62
2023/12/05 02:14:47;;;;;;;;;;;18.70;49.80;;;;;;5073911;28;19932;-62
2023/12/05 02:17:16;;;;;;;;;;;18.70;50.50;;;;;;5073720;28;19928;-62
2023/12/05 02:19:42;;;;;;;;;;;18.70;49.80;;;;;;5073462;28;19950;-62
2023/12/05 02:22:26;;;;;;;;;;;18.70;49.80;;;;;;5073545;28;19924;-62
2023/12/05 02:25:10;;;;;;;;;;;18.70;49.80;;;;;;5055047;28;19932;-62
2023/12/05 02:27:36;;;;;;;;;;;18.70;49.80;;;;;;5055632;28;19931;-62
2023/12/05 02:30:02;;;;;;;;;;;18.70;49.80;;;;;;5073479;28;19924;-62
2023/12/05 02:32:27;;;;;;;;;;;18.70;49.80;;;;;;5072966;28;20090;-62
2023/12/05 02:34:53;;;;;;;;;;;18.70;49.80;;;;;;5072873;28;20011;-63
2023/12/05 02:37:21;;;;;;;;;;;18.80;49.90;;;;;;5073850;28;19925;-62
2023/12/05 02:39:54;;;;;;;;;;;18.80;50.60;;;;;;5042965;28;19931;-62
2023/12/05 02:42:20;;;;;;;;;;;18.80;49.80;;;;;;5053391;28;19931;-62
2023/12/05 02:44:48;;;;;;;;;;;18.80;49.90;;;;;;5019554;28;19925;-62
2023/12/05 02:47:13;;;;;;;;;;;18.80;49.80;;;;;;5052385;28;20015;-62
2023/12/05 02:49:39;;;;;;;;;;;18.80;49.80;;;;;;5059717;28;19980;-63
2023/12/05 02:52:05;;;;;;;;;;;18.80;49.90;;;;;;5055131;28;19931;-62
2023/12/05 02:54:30;;;;;;;;;;;18.80;49.90;;;;;;5072647;28;19924;-62
2023/12/05 02:56:55;;;;;;;;;;;18.80;49.90;;;;;;5044405;28;19925;-62
2023/12/05 02:59:21;;;;;;;;;;;18.80;49.90;;;;;;5035694;28;19990;-62
2023/12/05 03:01:46;;;;;;;;;;;18.80;49.90;;;;;;5064381;28;20019;-62
2023/12/05 03:04:12;;;;;;;;;;;18.80;49.80;;;;;;5072620;28;19935;-62
2023/12/05 03:06:37;;;;;;;;;;;18.80;49.90;;;;;;5072819;28;20373;-62
2023/12/05 03:09:03;;;;;;;;;;;18.80;49.80;;;;;;5071695;28;20020;-62
2023/12/05 03:11:29;;;;;;;;;;;18.80;49.90;;;;;;5055096;28;19924;-62
2023/12/05 03:13:54;;;;;;;;;;;18.80;49.80;;;;;;5072869;28;19925;-62
2023/12/05 03:16:20;;;;;;;;;;;18.80;49.80;;;;;;5072397;28;19925;-62
2023/12/05 03:18:45;;;;;;;;;;;18.80;49.80;;;;;;5072944;28;20019;-62
2023/12/05 03:21:17;;;;;;;;;;;18.90;49.90;;;;;;5072418;28;19928;-62
2023/12/05 03:23:43;;;;;;;;;;;18.90;49.90;;;;;;5072203;28;19928;-62
2023/12/05 03:26:15;;;;;;;;;;;18.90;49.90;;;;;;5061282;28;19993;-62
2023/12/05 03:28:41;;;;;;;;;;;18.90;49.90;;;;;;5052613;28;19925;-63
2023/12/05 03:31:06;;;;;;;;;;;18.90;49.90;;;;;;5034754;28;19925;-62
2023/12/05 03:33:32;;;;;;;;;;;18.90;49.90;;;;;;5053178;28;20299;-63
2023/12/05 03:35:57;;;;;;;;;;;18.90;49.80;;;;;;5051040;28;20311;-62
2023/12/05 03:38:23;;;;;;;;;;;18.90;49.80;;;;;;5053097;28;19925;-62
2023/12/05 03:40:48;;;;;;;;;;;18.90;49.80;;;;;;5052454;28;19948;-62
2023/12/05 03:43:14;;;;;;;;;;;18.90;49.80;;;;;;5034336;28;19921;-62
2023/12/05 03:45:39;;;;;;;;;;;18.90;49.80;;;;;;5052902;28;19925;-63
2023/12/05 03:48:05;;;;;;;;;;;18.90;49.80;;;;;;5052692;28;20292;-62
2023/12/05 03:50:30;;;;;;;;;;;18.90;49.80;;;;;;5052037;28;19959;-62
2023/12/05 03:52:56;;;;;;;;;;;19.00;49.90;;;;;;5052489;28;19929;-62
2023/12/05 03:55:21;;;;;;;;;;;18.90;49.80;;;;;;5034549;28;20036;-62
2023/12/05 03:57:47;;;;;;;;;;;19.00;49.90;;;;;;5051157;28;19920;-62
2023/12/05 04:00:12;;;;;;;;;;;19.00;49.80;;;;;;5052612;28;19936;-62
2023/12/05 04:02:38;;;;;;;;;;;19.00;49.80;;;;;;5052641;28;19924;-62
2023/12/05 04:05:04;;;;;;;;;;;19.00;49.90;;;;;;5033777;28;19925;-62
2023/12/05 04:07:29;;;;;;;;;;;19.00;49.90;;;;;;5052388;28;19948;-62
2023/12/05 04:09:55;;;;;;;;;;;19.00;49.80;;;;;;5051819;28;19927;-62
2023/12/05 04:12:20;;;;;;;;;;;19.00;49.80;;;;;;5033692;28;20372;-62
2023/12/05 04:14:46;;;;;;;;;;;19.00;49.80;;;;;;5052406;28;19987;-62
2023/12/05 04:17:11;;;;;;;;;;;19.00;50.50;;;;;;5052238;28;19928;-63
2023/12/05 04:19:37;;;;;;;;;;;19.10;49.80;;;;;;5051872;28;19951;-63
2023/12/05 04:22:02;;;;;;;;;;;19.00;49.70;;;;;;5052215;28;19929;-63
2023/12/05 04:24:28;;;;;;;;;;;19.10;49.80;;;;;;5031062;28;19929;-62
2023/12/05 04:26:53;;;;;;;;;;;19.10;49.80;;;;;;5030385;28;19925;-62
2023/12/05 04:29:19;;;;;;;;;;;19.10;49.80;;;;;;5049548;28;19935;-63
2023/12/05 04:31:44;;;;;;;;;;;19.10;49.80;;;;;;5054885;28;19952;-63
2023/12/05 04:34:10;;;;;;;;;;;19.10;49.80;;;;;;5055687;28;19961;-63
2023/12/05 04:36:35;;;;;;;;;;;19.10;49.80;;;;;;5055978;28;19925;-63
2023/12/05 04:39:01;;;;;;;;;;;19.10;49.70;;;;;;5054992;28;19983;-63
2023/12/05 04:41:27;;;;;;;;;;;19.20;49.80;;;;;;5054261;28;19924;-63
2023/12/05 04:43:52;;;;;;;;;;;19.20;49.80;;;;;;5055513;28;20381;-63
2023/12/05 04:46:18;;;;;;;;;;;19.20;49.70;;;;;;5054840;28;19931;-62
2023/12/05 04:48:44;;;;;;;;;;;19.20;49.70;;;;;;5055779;28;19925;-63
2023/12/05 04:51:09;;;;;;;;;;;19.20;49.70;;;;;;5055464;28;19948;-63
2023/12/05 04:53:35;;;;;;;;;;;19.20;49.70;;;;;;5054655;28;20023;-62
2023/12/05 04:56:00;;;;;;;;;;;19.20;49.80;;;;;;5055214;28;19948;-63
2023/12/05 04:58:26;;;;;;;;;;;19.20;49.70;;;;;;5055130;28;19964;-63
2023/12/05 05:00:52;;;;;;;;;;;19.20;49.70;;;;;;5050501;28;19921;-62
2023/12/05 05:03:17;;;;;;;;;;;19.20;49.70;;;;;;5041008;28;19925;-62
2023/12/05 05:05:43;;;;;;;;;;;19.30;49.70;;;;;;5032766;28;20407;-62
2023/12/05 05:08:08;;;;;;;;;;;19.30;49.70;;;;;;5032622;28;19925;-62
2023/12/05 05:10:34;;;;;;;;;;;19.30;49.70;;;;;;5017105;28;19986;-63
2023/12/05 05:12:59;;;;;;;;;;;19.30;49.70;;;;;;5035355;28;20392;-63
2023/12/05 05:15:25;;;;;;;;;;;19.30;49.60;;;;;;5034720;28;19931;-62
2023/12/05 05:17:50;;;;;;;;;;;19.30;49.60;;;;;;5034061;28;19929;-62
2023/12/05 05:20:16;;;;;;;;;;;19.30;49.70;;;;;;5033807;28;20396;-62
2023/12/05 05:22:41;;;;;;;;;;;19.30;49.70;;;;;;5035328;28;20332;-63
2023/12/05 05:25:09;;;;;;;;;;;19.40;50.40;;;;;;5054013;28;20163;-62
2023/12/05 05:27:34;;;;;;;;;;;19.40;49.70;;;;;;5055038;28;20015;-63
2023/12/05 05:30:00;;;;;;;;;;;19.40;49.70;;;;;;5053759;28;20384;-63
2023/12/05 05:32:25;;;;;;;;;;;19.40;49.70;;;;;;5054441;28;20406;-63
2023/12/05 05:34:51;;;;;;;;;;;19.40;49.70;;;;;;5037011;28;19979;-62
2023/12/05 05:37:18;;;;;;;;;;;19.40;49.70;;;;;;5053771;28;20372;-63
2023/12/05 05:39:44;;;;;;;;;;;19.40;49.70;;;;;;5054634;28;19928;-63
2023/12/05 05:42:09;;;;;;;;;;;19.40;49.60;;;;;;5053316;28;20015;-63
2023/12/05 05:44:35;;;;;;;;;;;19.40;49.60;;;;;;5054913;28;19924;-63
2023/12/05 05:47:00;;;;;;;;;;;19.40;49.60;;;;;;5054498;28;19971;-63
2023/12/05 05:49:26;;;;;;;;;;;19.40;49.60;;;;;;5053978;28;19928;-62
2023/12/05 05:51:51;;;;;;;;;;;19.40;49.60;;;;;;5054473;28;19979;-62
2023/12/05 05:54:17;;;;;;;;;;;19.50;49.70;;;;;;5054090;28;19924;-63
2023/12/05 05:56:42;;;;;;;;;;;19.40;49.60;;;;;;5053735;28;20395;-62
2023/12/05 05:59:07;;;;;;;;;;;19.50;49.60;;;;;;5052799;28;19929;-63
2023/12/05 06:01:33;;;;;;;;;;;19.50;49.60;;;;;;5053188;28;19929;-63
2023/12/05 06:03:58;;;;;;;;;;;19.50;49.60;;;;;;5053063;28;20249;-62
2023/12/05 06:06:24;;;;;;;;;;;19.50;49.60;;;;;;5053712;28;20007;-62
2023/12/05 06:08:49;;;;;;;;;;;19.50;49.60;;;;;;5054051;28;20269;-62
2023/12/05 06:11:15;;;;;;;;;;;19.50;49.60;;;;;;5034664;28;20051;-62
2023/12/05 06:13:40;;;;;;;;;;;19.50;49.50;;;;;;5053801;28;20368;-62
2023/12/05 06:16:07;;;;;;;;;;;19.50;49.50;;;;;;5054022;28;20077;-62
2023/12/05 06:18:32;;;;;;;;;;;19.50;49.60;;;;;;5053261;28;19928;-63
2023/12/05 06:20:58;;;;;;;;;;;19.50;49.50;;;;;;5054185;28;19925;-62
2023/12/05 06:23:23;;;;;;;;;;;19.50;49.50;;;;;;5053991;28;20321;-62
2023/12/05 06:25:49;;;;;;;;;;;19.50;49.50;;;;;;5052534;28;20359;-63
2023/12/05 06:28:14;;;;;;;;;;;19.50;49.50;;;;;;5035202;28;20390;-63
2023/12/05 06:30:40;;;;;;;;;;;19.50;49.50;;;;;;5058767;28;19928;-62
2023/12/05 06:33:05;;;;;;;;;;;19.50;49.50;;;;;;5072033;28;19932;-62
2023/12/05 06:35:31;;;;;;;;;;;19.60;49.60;;;;;;5066207;28;19925;-62
2023/12/05 06:37:56;;;;;;;;;;;19.60;49.60;;;;;;5052708;28;19931;-62
2023/12/05 06:40:22;;;;;;;;;;;19.60;49.50;;;;;;5034611;28;19924;-62
2023/12/05 06:42:47;;;;;;;;;;;19.60;49.50;;;;;;5053652;28;19929;-62
2023/12/05 06:45:13;;;;;;;;;;;19.60;49.50;;;;;;5053140;28;20023;-62
2023/12/05 06:47:38;;;;;;;;;;;19.60;49.50;;;;;;5035071;28;19929;-62
2023/12/05 06:50:10;;;;;;;;;;;19.60;49.50;;;;;;5035539;28;19921;-62
2023/12/05 06:52:35;;;;;;;;;;;19.60;49.50;;;;;;5018619;28;19924;-62
2023/12/05 06:55:01;;;;;;;;;;;19.60;49.50;;;;;;5052682;28;19925;-62
2023/12/05 06:57:26;;;;;;;;;;;19.60;49.50;;;;;;5053461;28;19927;-63
2023/12/05 06:59:51;;;;;;;;;;;19.60;49.40;;;;;;5052127;28;19925;-63
2023/12/05 07:02:17;;;;;;;;;;;19.60;49.40;;;;;;5053608;28;19971;-62
2023/12/05 07:04:42;;;;;;;;;;;19.60;49.40;;;;;;5055554;28;19935;-62
2023/12/05 07:07:08;;;;;;;;;;;19.60;49.40;;;;;;5054289;28;19928;-62
2023/12/05 07:09:33;;;;;;;;;;;19.60;49.40;;;;;;5073049;28;19931;-62
2023/12/05 07:11:59;;;;;;;;;;;19.70;49.40;;;;;;5072625;28;19924;-62
2023/12/05 07:14:25;;;;;;;;;;;19.70;49.40;;;;;;5072594;28;19925;-63
2023/12/05 07:16:50;;;;;;;;;;;19.70;49.40;;;;;;5073248;28;19925;-62
2023/12/05 07:19:16;;;;;;;;;;;19.70;49.40;;;;;;5072776;28;19967;-63
2023/12/05 07:21:41;;;;;;;;;;;19.70;49.40;;;;;;5072350;28;19931;-63
2023/12/05 07:24:07;;;;;;;;;;;19.70;49.30;;;;;;5072639;28;19960;-62
2023/12/05 07:26:32;;;;;;;;;;;19.70;49.30;;;;;;5072681;28;19932;-61
2023/12/05 07:28:57;;;;;;;;;;;19.70;49.30;;;;;;5062838;28;19921;-61
2023/12/05 07:31:23;;;;;;;;;;;19.70;49.40;;;;;;5035061;28;19975;-61
2023/12/05 07:33:48;;;;;;;;;;;19.70;49.40;;;;;;5052867;28;19925;-60
2023/12/05 07:36:14;;;;;;;;;;;19.70;49.50;;;;;;5051685;28;19925;-61
2023/12/05 07:38:39;;;;;;;;;;;19.70;49.60;;;;;;5035233;28;19924;-61
2023/12/05 07:41:05;;;;;;;;;;;19.70;49.70;;;;;;5051897;28;20444;-62
2023/12/05 07:43:30;;;;;;;;;;;19.80;49.90;;;;;;5052146;28;19933;-61
2023/12/05 07:45:56;;;;;;;;;;;19.80;50.10;;;;;;5034463;28;19928;-61
2023/12/05 07:48:21;;;;;;;;;;;19.80;50.00;;;;;;5052891;28;20024;-62
2023/12/05 07:50:47;;;;;;;;;;;19.80;50.10;;;;;;5051248;28;19924;-61
2023/12/05 07:53:12;;;;;;;;;;;19.80;50.30;;;;;;5052437;28;19963;-62
2023/12/05 07:55:38;;;;;;;;;;;19.80;50.40;;;;;;5034904;28;19932;-61
2023/12/05 07:58:03;;;;;;;;;;;19.80;50.60;;;;;;5051777;28;19936;-60
2023/12/05 08:00:29;;;;;;;;;;;19.80;50.50;;;;;;5034957;28;19924;-60
2023/12/05 08:02:54;;;;;;;;;;;19.80;50.50;;;;;;5051393;28;19925;-60
2023/12/05 08:05:20;;;;;;;;;;;19.90;50.60;;;;;;5053902;28;19986;-59
2023/12/05 08:07:45;;;;;;;;;;;19.90;50.60;;;;;;5056670;28;19920;-60
2023/12/05 08:10:11;;;;;;;;;;;19.90;50.60;;;;;;5037408;28;20448;-60
2023/12/05 08:12:36;;;;;;;;;;;19.90;50.60;;;;;;5038741;28;19924;-60
2023/12/05 08:15:03;;;;;;;;;;;19.90;50.60;;;;;;5056402;28;19932;-60
2023/12/05 08:17:28;;;;;;;;;;;19.90;50.60;;;;;;5055674;28;20015;-61
2023/12/05 08:19:54;;;;;;;;;;;19.90;50.60;;;;;;5055968;28;19963;-60
2023/12/05 08:22:21;;;;;;;;;;;19.90;50.60;;;;;;5056374;28;19928;-60
2023/12/05 08:24:47;;;;;;;;;;;19.90;50.60;;;;;;5042492;28;19951;-60
2023/12/05 08:27:13;;;;;;;;;;;19.90;50.60;;;;;;5047630;28;19925;-60
2023/12/05 08:29:39;;;;;;;;;;;20.00;50.70;;;;;;5067112;28;20308;-61
2023/12/05 08:32:05;;;;;;;;;;;20.00;50.60;;;;;;5075246;28;20356;-61
2023/12/05 08:34:30;;;;;;;;;;;20.00;50.70;;;;;;5069840;28;19932;-60
2023/12/05 08:36:56;;;;;;;;;;;20.00;50.60;;;;;;5042778;28;19978;-61
2023/12/05 08:39:21;;;;;;;;;;;20.00;50.60;;;;;;5065294;28;20319;-61
2023/12/05 08:41:47;;;;;;;;;;;20.00;50.60;;;;;;5066214;28;19928;-60
2023/12/05 08:44:12;;;;;;;;;;;20.00;50.60;;;;;;5064016;28;19925;-60
2023/12/05 08:46:38;;;;;;;;;;;20.00;50.60;;;;;;5047259;28;19925;-59
2023/12/05 08:49:03;;;;;;;;;;;20.00;50.60;;;;;;5065163;28;19998;-60
2023/12/05 08:51:29;;;;;;;;;;;20.00;50.60;;;;;;5043187;28;19925;-60
2023/12/05 08:53:54;;;;;;;;;;;20.00;50.60;;;;;;5060641;28;20210;-61
2023/12/05 08:56:20;;;;;;;;;;;20.00;50.50;;;;;;5037396;28;19982;-60
2023/12/05 08:58:45;;;;;;;;;;;20.00;50.50;;;;;;5055468;28;19928;-61
2023/12/05 09:01:14;;;;;;;;;;;20.00;50.50;;;;;;5053962;28;19928;-61
2023/12/05 09:03:39;;;;;;;;;;;20.00;50.60;;;;;;5055183;28;20384;-60
2023/12/05 09:06:05;;;;;;;;;;;20.00;50.50;;;;;;5036238;28;19931;-60
2023/12/05 09:08:30;;;;;;;;;;;20.00;50.50;;;;;;5055331;28;19978;-61
2023/12/05 09:10:58;;;;;;;;;;;20.00;50.60;;;;;;5055081;28;19924;-61
2023/12/05 09:13:25;;;;;;;;;;;20.00;50.50;;;;;;5054777;28;19932;-61
2023/12/05 09:15:50;;;;;;;;;;;20.00;50.70;;;;;;5037042;28;20368;-60
2023/12/05 09:18:16;;;;;;;;;;;19.90;50.60;;;;;;5054841;28;19928;-60
2023/12/05 09:20:41;;;;;;;;;;;19.90;50.70;;;;;;5036865;28;19932;-60
2023/12/05 09:23:07;;;;;;;;;;;20.00;50.80;;;;;;5036634;28;19932;-61
2023/12/05 09:25:32;;;;;;;;;;;19.90;50.60;;;;;;5037437;28;20380;-60
2023/12/05 09:27:58;;;;;;;;;;;19.90;50.70;;;;;;5035742;28;20339;-61
2023/12/05 09:30:23;;;;;;;;;;;20.00;50.80;;;;;;5054887;28;20040;-61
2023/12/05 09:32:49;;;;;;;;;;;19.90;50.60;;;;;;5054889;28;20434;-60
2023/12/05 09:35:14;;;;;;;;;;;19.90;50.60;;;;;;5053728;28;20391;-60
2023/12/05 09:37:40;;;;;;;;;;;19.90;50.60;;;;;;5055016;28;19942;-61
2023/12/05 09:40:07;;;;;;;;;;;19.90;50.60;;;;;;5054358;28;19933;-61
2023/12/05 09:42:33;;;;;;;;;;;19.90;50.60;;;;;;5019821;28;19921;-61
2023/12/05 09:44:58;;;;;;;;;;;19.90;50.50;;;;;;5019842;28;20023;-59
2023/12/05 09:47:23;;;;;;;;;;;19.90;50.60;;;;;;5019327;28;19929;-60
2023/12/05 09:49:49;;;;;;;;;;;19.90;50.80;;;;;;5035677;28;19963;-60
2023/12/05 09:52:15;;;;;;;;;;;19.90;50.90;;;;;;5064814;28;19924;-59
2023/12/05 09:54:43;;;;;;;;;;;19.90;51.00;;;;;;5072535;28;19932;-59
2023/12/05 09:57:12;;;;;;;;;;;20.00;51.10;;;;;;5045287;28;19931;-60
2023/12/05 09:59:38;;;;;;;;;;;19.90;51.00;;;;;;5074559;28;19947;-59
2023/12/05 10:02:03;;;;;;;;;;;19.90;51.00;;;;;;5055730;28;20376;-59
2023/12/05 10:04:30;;;;;;;;;;;20.00;51.10;;;;;;5051930;28;19924;-59
2023/12/05 10:06:56;;;;;;;;;;;20.00;51.10;;;;;;5050403;28;19986;-60
2023/12/05 10:09:23;;;;;;;;;;;20.00;51.00;;;;;;5072898;28;20525;-60
2023/12/05 10:11:48;;;;;;;;;;;20.00;50.90;;;;;;5055936;28;20025;-60
2023/12/05 10:14:14;;;;;;;;;;;19.90;50.70;;;;;;5056018;28;19932;-60
2023/12/05 10:16:40;;;;;;;;;;;19.90;50.70;;;;;;5072675;28;19955;-60
2023/12/05 10:19:06;;;;;;;;;;;19.90;50.80;;;;;;5055942;28;19959;-60
2023/12/05 10:21:31;;;;;;;;;;;19.90;50.80;;;;;;5039265;28;19974;-61
2023/12/05 10:23:57;;;;;;;;;;;19.90;50.80;;;;;;5072396;28;19936;-61
2023/12/05 10:26:22;;;;;;;;;;;19.90;50.70;;;;;;5073935;28;19924;-60
2023/12/05 10:28:49;;;;;;;;;;;20.00;50.70;;;;;;5055346;28;20015;-71
2023/12/05 10:31:15;;;;;;;;;;;19.90;50.50;;;;;;5054469;28;19966;-62
2023/12/05 10:33:40;;;;;;;;;;;19.90;50.60;;;;;;5053159;28;19972;-59
2023/12/05 10:36:09;;;;;;;;;;;19.90;50.60;;;;;;5061164;28;19925;-60
2023/12/05 10:38:34;;;;;;;;;;;19.90;50.70;;;;;;5035209;28;19929;-60
2023/12/05 10:41:00;;;;;;;;;;;20.00;50.80;;;;;;5070670;28;19924;-60
2023/12/05 10:43:26;;;;;;;;;;;20.00;50.90;;;;;;5065792;28;19925;-60
2023/12/05 10:45:52;;;;;;;;;;;20.00;50.90;;;;;;5057956;28;19934;-60
2023/12/05 10:48:17;;;;;;;;;;;20.00;50.90;;;;;;5035440;28;20266;-60
2023/12/05 10:50:44;;;;;;;;;;;20.00;50.90;;;;;;5049948;28;20402;-60
2023/12/05 10:53:09;;;;;;;;;;;20.00;50.90;;;;;;5072473;28;19932;-60
2023/12/05 10:55:35;;;;;;;;;;;19.90;50.80;;;;;;5055372;28;19924;-60
2023/12/05 10:58:01;;;;;;;;;;;19.90;50.80;;;;;;5072844;28;19925;-60
2023/12/05 11:00:29;;;;;;;;;;;19.90;50.90;;;;;;5053769;28;20344;-60
2023/12/05 11:02:55;;;;;;;;;;;20.00;50.80;;;;;;5055012;28;19961;-60
2023/12/05 11:05:24;;;;;;;;;;;19.90;50.80;;;;;;5054896;28;19924;-60
2023/12/05 11:07:50;;;;;;;;;;;19.90;50.80;;;;;;5072556;28;19931;-60
2023/12/05 11:10:16;;;;;;;;;;;19.90;50.80;;;;;;5070888;28;20360;-60
2023/12/05 11:12:42;;;;;;;;;;;20.00;50.80;;;;;;5061258;28;20015;-60
2023/12/05 11:15:08;;;;;;;;;;;19.90;50.80;;;;;;5043348;28;19924;-60
2023/12/05 11:17:35;;;;;;;;;;;19.90;50.80;;;;;;5055039;28;19928;-60
2023/12/05 11:20:09;;;;;;;;;;;19.90;50.70;;;;;;5072000;28;19929;-61
2023/12/05 11:22:38;;;;;;;;;;;19.90;50.80;;;;;;5072912;28;19924;-61
2023/12/05 11:25:22;;;;;;;;;;;19.90;50.80;;;;;;5072671;28;19924;-61
2023/12/05 11:28:08;;;;;;;;;;;19.90;50.80;;;;;;5072418;28;19994;-60
2023/12/05 11:30:52;;;;;;;;;;;19.90;50.70;;;;;;5055074;28;19935;-61
2023/12/05 11:33:40;;;;;;;;;;;19.90;50.70;;;;;;5072128;28;20296;-61
2023/12/05 11:36:23;;;;;;;;;;;19.90;50.70;;;;;;5045890;28;19925;-61
2023/12/05 11:38:49;;;;;;;;;;;19.90;50.60;;;;;;5027811;28;19929;-61
2023/12/05 11:41:17;;;;;;;;;;;19.90;50.50;;;;;;5052285;28;20292;-61
2023/12/05 11:43:43;;;;;;;;;;;19.90;50.40;;;;;;5058303;28;20015;-61
2023/12/05 11:46:08;;;;;;;;;;;19.90;50.40;;;;;;5058364;28;20046;-61
2023/12/05 11:48:34;;;;;;;;;;;19.90;50.30;;;;;;5076291;28;20403;-61
2023/12/05 11:51:00;;;;;;;;;;;19.90;50.40;;;;;;5058591;28;20318;-61
2023/12/05 11:53:25;;;;;;;;;;;19.90;50.30;;;;;;5076840;28;19932;-61
2023/12/05 11:55:51;;;;;;;;;;;19.80;50.30;;;;;;5058215;28;20368;-61
2023/12/05 11:58:28;;;;;;;;;;;19.90;50.40;;;;;;5076912;28;19924;-61
2023/12/05 12:01:00;;;;;;;;;;;19.80;50.40;;;;;;5041035;28;19947;-61
2023/12/05 12:03:26;;;;;;;;;;;19.80;50.30;;;;;;5055966;28;20015;-61
2023/12/05 12:06:00;;;;;;;;;;;19.80;50.40;;;;;;5056110;28;19925;-61
2023/12/05 12:08:25;;;;;;;;;;;19.80;50.40;;;;;;5022299;28;19986;-61
2023/12/05 12:10:51;;;;;;;;;;;19.80;50.60;;;;;;5055709;28;19971;-61
2023/12/05 12:13:16;;;;;;;;;;;19.80;50.60;;;;;;5038329;28;19925;-61
2023/12/05 12:15:42;;;;;;;;;;;19.80;50.60;;;;;;5056301;28;19920;-61
2023/12/05 12:18:08;;;;;;;;;;;19.80;50.70;;;;;;5055330;28;20295;-61
2023/12/05 12:20:34;;;;;;;;;;;19.80;50.60;;;;;;5022083;28;20455;-61
2023/12/05 12:22:59;;;;;;;;;;;19.80;50.60;;;;;;5055500;28;20017;-61
2023/12/05 12:25:24;;;;;;;;;;;19.80;50.60;;;;;;5056233;28;20024;-61
2023/12/05 12:27:50;;;;;;;;;;;19.80;50.60;;;;;;5056119;28;19932;-61
2023/12/05 12:30:17;;;;;;;;;;;19.80;50.60;;;;;;5037183;28;19925;-60
2023/12/05 12:33:04;;;;;;;;;;;19.80;50.60;;;;;;5067317;28;19932;-59
2023/12/05 12:35:31;;;;;;;;;;;19.80;50.70;;;;;;5072489;28;19974;-59
2023/12/05 12:37:56;;;;;;;;;;;19.80;50.80;;;;;;5057316;28;19932;-59
2023/12/05 12:40:22;;;;;;;;;;;19.80;50.80;;;;;;5037561;28;19925;-59
2023/12/05 12:42:49;;;;;;;;;;;19.80;50.90;;;;;;5052770;28;19924;-59
2023/12/05 12:45:15;;;;;;;;;;;19.80;50.90;;;;;;5074486;28;19925;-59
2023/12/05 12:47:41;;;;;;;;;;;19.80;50.90;;;;;;5057596;28;19932;-59
2023/12/05 12:50:07;;;;;;;;;;;19.80;51.00;;;;;;5075258;28;19925;-60
2023/12/05 12:52:32;;;;;;;;;;;19.80;51.00;;;;;;5056104;28;19928;-59
2023/12/05 12:54:58;;;;;;;;;;;19.80;51.00;;;;;;5075573;28;19931;-59
2023/12/05 12:57:23;;;;;;;;;;;19.80;51.00;;;;;;5057592;28;19931;-59
2023/12/05 12:59:51;;;;;;;;;;;19.80;51.10;;;;;;5074743;28;20300;-59
2023/12/05 13:02:18;;;;;;;;;;;19.90;51.00;;;;;;5057641;28;20015;-60
2023/12/05 13:04:44;;;;;;;;;;;19.80;51.00;;;;;;5075648;28;19931;-59
2023/12/05 13:07:17;;;;;;;;;;;19.90;51.10;;;;;;5074265;28;19925;-59
2023/12/05 13:09:42;;;;;;;;;;;19.90;51.10;;;;;;5075538;28;20376;-59
2023/12/05 13:12:08;;;;;;;;;;;19.90;51.00;;;;;;5074624;28;19932;-59
2023/12/05 13:14:33;;;;;;;;;;;19.90;51.00;;;;;;5056503;28;19925;-63
2023/12/05 13:16:59;;;;;;;;;;;19.90;51.10;;;;;;5074827;28;19927;-59
2023/12/05 13:19:35;;;;;;;;;;;19.90;51.10;;;;;;5055384;28;20035;-59
2023/12/05 13:22:00;;;;;;;;;;;19.90;51.00;;;;;;5038375;28;19925;-61
2023/12/05 13:24:26;;;;;;;;;;;19.90;51.10;;;;;;5054821;28;19947;-61
2023/12/05 13:26:52;;;;;;;;;;;19.90;51.10;;;;;;5036113;28;19925;-61
2023/12/05 13:29:17;;;;;;;;;;;19.90;51.00;;;;;;5055291;28;19935;-61
2023/12/05 13:31:43;;;;;;;;;;;19.90;51.00;;;;;;5055764;28;19931;-61
2023/12/05 13:34:08;;;;;;;;;;;19.90;50.90;;;;;;5055947;28;20419;-61
2023/12/05 13:36:34;;;;;;;;;;;20.00;51.00;;;;;;5057177;28;19924;-61
2023/12/05 13:38:59;;;;;;;;;;;20.00;51.00;;;;;;5056733;28;19931;-61
2023/12/05 13:41:25;;;;;;;;;;;20.00;51.00;;;;;;5055658;28;20360;-61
2023/12/05 13:43:51;;;;;;;;;;;20.00;51.00;;;;;;5057100;28;19925;-61
2023/12/05 13:46:17;;;;;;;;;;;19.90;50.90;;;;;;5074778;28;19924;-61
2023/12/05 13:48:43;;;;;;;;;;;19.90;51.00;;;;;;5074055;28;19920;-61
2023/12/05 13:51:08;;;;;;;;;;;19.90;50.80;;;;;;5074449;28;19924;-61
2023/12/05 13:53:34;;;;;;;;;;;19.90;50.90;;;;;;5074578;28;19932;-61
2023/12/05 13:55:59;;;;;;;;;;;20.00;50.90;;;;;;5071536;28;19947;-59
2023/12/05 13:58:25;;;;;;;;;;;20.00;50.80;;;;;;5067640;28;20019;-59
2023/12/05 14:00:50;;;;;;;;;;;19.90;50.90;;;;;;5073432;28;19971;-59
2023/12/05 14:03:16;;;;;;;;;;;19.90;50.90;;;;;;5072134;28;19924;-60
2023/12/05 14:05:41;;;;;;;;;;;20.00;51.00;;;;;;5056325;28;20403;-59
2023/12/05 14:08:07;;;;;;;;;;;20.00;51.10;;;;;;5073592;28;19925;-59
2023/12/05 14:10:32;;;;;;;;;;;19.90;51.10;;;;;;5073476;28;20265;-59